Time;durP1;ratioP1;P1;durP2;ratioP2;P2;SDS_P1;SDS_P2;PMS_P1;PMS_P2;Temp;Humidity;BMP_temperature;BMP_pressure;BME280_temperature;BME280_humidity;BME280_pressure;Samples;Min_cycle;Max_cycle;Signal;HPM_P1;HPM_P2
2020/12/31 00:02:19;;;;;;;11.45;5.13;;;;;;;0.72;83.36;95959.88;5019662;28;20056;-60
2020/12/31 00:04:45;;;;;;;8.98;5.53;;;;;;;0.67;83.42;95956.56;5043177;28;20051;-62
2020/12/31 00:07:10;;;;;;;8.52;4.97;;;;;;;0.61;84.22;95949.75;5036244;28;20132;-61
2020/12/31 00:09:36;;;;;;;9.23;4.75;;;;;;;0.59;84.12;95954.66;5018980;28;20060;-62
2020/12/31 00:12:03;;;;;;;8.38;4.38;;;;;;;0.74;83.52;95948.78;5041072;28;20045;-61
2020/12/31 00:14:29;;;;;;;7.38;4.38;;;;;;;0.80;83.29;95952.09;5037855;28;20045;-61
2020/12/31 00:16:54;;;;;;;7.72;5.00;;;;;;;0.71;83.59;95952.88;5039081;28;20045;-62
2020/12/31 00:19:20;;;;;;;10.20;5.03;;;;;;;0.78;83.64;95938.13;5035991;28;20041;-60
2020/12/31 00:21:45;;;;;;;7.93;4.90;;;;;;;0.67;83.61;95940.38;5034498;28;20049;-62
2020/12/31 00:24:10;;;;;;;10.23;5.15;;;;;;;0.68;82.91;95939.25;5036770;28;20052;-61
2020/12/31 00:26:36;;;;;;;7.60;4.63;;;;;;;0.68;83.33;95940.03;5013063;28;20060;-61
2020/12/31 00:29:01;;;;;;;8.45;4.75;;;;;;;0.66;83.07;95928.78;5041583;28;20688;-60
2020/12/31 00:31:27;;;;;;;8.90;5.28;;;;;;;0.59;83.40;95936.59;5037065;28;20049;-61
2020/12/31 00:33:52;;;;;;;8.93;4.97;;;;;;;0.50;84.10;95930.41;5033791;28;20041;-59
2020/12/31 00:36:17;;;;;;;6.28;4.22;;;;;;;0.50;84.60;95925.03;5044541;28;20053;-61
2020/12/31 00:38:43;;;;;;;6.57;4.43;;;;;;;0.69;83.53;95932.78;5047774;28;20075;-61
2020/12/31 00:41:09;;;;;;;7.22;4.63;;;;;;;0.73;83.87;95933.69;5033613;28;20037;-59
2020/12/31 00:43:34;;;;;;;7.68;4.43;;;;;;;0.75;83.25;95932.25;5034327;28;20072;-61
2020/12/31 00:46:00;;;;;;;7.18;4.50;;;;;;;0.75;83.49;95926.88;5041504;28;20033;-60
2020/12/31 00:48:25;;;;;;;7.95;4.22;;;;;;;0.74;83.32;95929.91;5033041;28;20055;-61
2020/12/31 00:50:50;;;;;;;7.38;4.18;;;;;;;0.75;83.33;95936.88;5042495;28;20045;-60
2020/12/31 00:53:16;;;;;;;7.57;4.47;;;;;;;0.76;83.40;95943.84;5036471;28;20044;-60
2020/12/31 00:55:42;;;;;;;7.13;4.57;;;;;;;0.75;83.51;95928.78;5036449;28;20140;-60
2020/12/31 00:58:07;;;;;;;7.38;4.82;;;;;;;0.79;82.95;95932.41;5033143;28;20374;-60
2020/12/31 01:00:34;;;;;;;7.38;5.07;;;;;;;0.72;82.52;95940.19;5041892;28;20107;-60
2020/12/31 01:03:00;;;;;;;8.65;4.95;;;;;;;0.68;83.14;95940.03;5041545;28;20045;-60
2020/12/31 01:05:26;;;;;;;9.43;5.55;;;;;;;0.67;83.29;95935.78;5015059;28;20069;-60
2020/12/31 01:07:54;;;;;;;6.30;4.50;;;;;;;0.79;82.16;95937.00;5035818;28;20091;-57
2020/12/31 01:10:20;;;;;;;8.15;4.20;;;;;;;0.81;82.23;95940.16;5036511;28;20515;-58
2020/12/31 01:12:46;;;;;;;8.23;4.57;;;;;;;0.80;82.06;95935.91;5041988;28;20045;-60
2020/12/31 01:15:12;;;;;;;7.68;4.90;;;;;;;0.72;82.36;95932.91;5037732;28;20053;-59
2020/12/31 01:17:37;;;;;;;7.22;4.53;;;;;;;0.69;82.78;95936.25;5043198;28;20111;-58
2020/12/31 01:20:04;;;;;;;8.77;4.47;;;;;;;0.65;83.00;95935.31;5044873;28;20102;-59
2020/12/31 01:22:30;;;;;;;7.78;4.55;;;;;;;0.49;83.66;95932.34;5030185;28;20049;-59
2020/12/31 01:24:55;;;;;;;8.57;5.55;;;;;;;0.32;84.32;95933.13;5042470;28;20506;-60
2020/12/31 01:27:21;;;;;;;8.45;5.10;;;;;;;0.17;85.08;95942.50;5037728;28;20922;-60
2020/12/31 01:29:46;;;;;;;8.32;5.00;;;;;;;0.02;85.82;95937.63;5052063;28;20044;-57
2020/12/31 01:32:11;;;;;;;10.60;6.00;;;;;;;-0.06;85.92;95933.00;5022161;28;20066;-60
2020/12/31 01:34:37;;;;;;;10.70;5.22;;;;;;;-0.07;86.20;95926.84;5022927;28;20041;-60
2020/12/31 01:37:02;;;;;;;9.20;5.70;;;;;;;-0.04;85.98;95928.09;5036687;28;20123;-61
2020/12/31 01:39:29;;;;;;;12.30;6.45;;;;;;;-0.04;86.01;95926.22;5020284;28;20582;-60
2020/12/31 01:41:54;;;;;;;11.05;6.15;;;;;;;-0.10;86.27;95926.69;5039668;28;20100;-59
2020/12/31 01:44:20;;;;;;;10.70;5.80;;;;;;;-0.10;86.54;95930.16;5035604;28;20059;-60
2020/12/31 01:46:47;;;;;;;7.60;5.18;;;;;;;-0.13;86.75;95930.00;5040497;28;20048;-59
2020/12/31 01:49:16;;;;;;;10.73;6.22;;;;;;;-0.21;86.71;95927.00;5035508;28;20052;-58
2020/12/31 01:51:45;;;;;;;10.07;5.72;;;;;;;-0.30;87.47;95920.03;5001198;28;20056;-59
2020/12/31 01:54:14;;;;;;;9.88;6.47;;;;;;;-0.37;88.01;95915.09;5034626;28;20105;-59
2020/12/31 01:56:41;;;;;;;9.27;5.47;;;;;;;-0.44;88.71;95914.78;5039943;28;20126;-58
2020/12/31 01:59:07;;;;;;;11.55;6.35;;;;;;;-0.49;89.20;95917.63;5034829;28;20053;-58
2020/12/31 02:01:32;;;;;;;9.32;5.80;;;;;;;-0.45;88.70;95916.69;5037768;28;20044;-58
2020/12/31 02:03:59;;;;;;;9.57;5.63;;;;;;;-0.43;88.66;95927.13;5039750;28;20040;-56
2020/12/31 02:06:27;;;;;;;11.00;5.70;;;;;;;-0.44;89.22;95917.47;5034586;28;20266;-57
2020/12/31 02:08:52;;;;;;;10.70;5.72;;;;;;;-0.40;88.84;95916.53;5039605;28;20063;-59
2020/12/31 02:11:19;;;;;;;9.10;5.88;;;;;;;-0.42;89.21;95913.34;5032879;28;20502;-59
2020/12/31 02:13:46;;;;;;;8.45;5.30;;;;;;;-0.54;89.05;95910.50;5022464;28;20621;-60
2020/12/31 02:16:13;;;;;;;10.65;5.40;;;;;;;-0.64;89.94;95911.56;5030365;28;20136;-60
2020/12/31 02:19:07;;;;;;;9.15;5.43;;;;;;;-0.79;90.57;95904.75;5038441;28;20048;-60
2020/12/31 02:21:37;;;;;;;10.38;6.00;;;;;;;-0.80;90.72;95916.59;5019934;28;20041;-58
2020/12/31 02:24:04;;;;;;;;;;;;;;;-0.79;90.92;95902.06;5019584;28;20055;-61
2020/12/31 02:26:31;;;;;;;8.70;5.68;;;;;;;-0.83;91.06;95911.88;5039815;28;19963;-59
2020/12/31 02:28:58;;;;;;;9.95;5.90;;;;;;;-0.83;90.99;95905.69;5039232;28;20371;-58
2020/12/31 02:31:25;;;;;;;11.32;6.28;;;;;;;-0.82;90.88;95910.75;5035020;28;20834;-60
2020/12/31 02:33:51;;;;;;;10.35;5.88;;;;;;;-0.79;91.13;95903.97;5036975;28;20551;-59
2020/12/31 02:36:20;;;;;;;12.98;6.93;;;;;;;-0.79;90.85;95901.28;5039209;28;20037;-59
2020/12/31 02:38:46;;;;;;;11.32;6.70;;;;;;;-0.81;90.66;95903.47;5040488;28;20128;-56
2020/12/31 02:41:13;;;;;;;10.40;6.20;;;;;;;-0.87;91.02;95893.97;5034314;28;20187;-59
2020/12/31 02:43:39;;;;;;;9.18;5.65;;;;;;;-0.98;91.32;95891.56;5034527;28;20056;-58
2020/12/31 02:46:06;;;;;;;12.48;6.60;;;;;;;-0.96;91.41;95881.28;5033619;28;20152;-61
2020/12/31 02:48:32;;;;;;;12.32;6.68;;;;;;;-1.01;91.73;95880.63;5021667;28;20051;-57
2020/12/31 02:50:57;;;;;;;11.80;7.00;;;;;;;-1.03;91.39;95875.56;5039431;28;20037;-59
2020/12/31 02:53:23;;;;;;;17.23;8.13;;;;;;;-1.06;91.75;95878.09;5026044;28;20453;-58
2020/12/31 02:55:48;;;;;;;9.43;5.93;;;;;;;-1.09;91.57;95881.41;5030768;28;20049;-58
2020/12/31 02:58:13;;;;;;;11.18;6.63;;;;;;;-1.13;91.70;95864.31;5030333;28;20040;-59
2020/12/31 03:00:39;;;;;;;12.30;6.38;;;;;;;-1.14;91.56;95865.44;5038968;28;20413;-59
2020/12/31 03:03:04;;;;;;;11.55;5.80;;;;;;;-1.18;91.53;95863.34;5032545;28;20080;-60
2020/12/31 03:05:30;;;;;;;7.82;5.47;;;;;;;-1.21;91.36;95853.22;5033811;28;20049;-57
2020/12/31 03:07:55;;;;;;;11.85;6.82;;;;;;;-1.25;91.29;95857.66;5037237;28;20029;-58
2020/12/31 03:10:21;;;;;;;13.68;7.25;;;;;;;-1.31;91.93;95858.13;5033952;28;20049;-60
2020/12/31 03:12:47;;;;;;;10.05;6.05;;;;;;;-1.39;92.03;95849.72;5035702;28;20041;-59
2020/12/31 03:15:14;;;;;;;14.63;7.07;;;;;;;-1.44;92.54;95852.53;5016673;28;20638;-58
2020/12/31 03:17:40;;;;;;;13.30;7.22;;;;;;;-1.51;92.52;95849.50;5040860;28;20037;-61
2020/12/31 03:20:06;;;;;;;16.33;7.68;;;;;;;-1.51;92.99;95851.38;5045307;28;20132;-61
2020/12/31 03:22:33;;;;;;;15.60;8.32;;;;;;;-1.42;92.98;95847.63;5052452;28;20190;-60
2020/12/31 03:24:58;;;;;;;13.85;7.93;;;;;;;-1.42;92.54;95842.28;5047911;28;20051;-60
2020/12/31 03:27:24;;;;;;;18.38;8.25;;;;;;;-1.44;93.10;95849.03;5011866;28;20033;-60
2020/12/31 03:29:49;;;;;;;17.67;8.82;;;;;;;-1.54;93.03;95842.06;5039387;28;20505;-60
2020/12/31 03:32:15;;;;;;;17.15;8.40;;;;;;;-1.57;93.46;95842.66;5027968;28;20390;-56
2020/12/31 03:34:41;;;;;;;16.25;8.77;;;;;;;-1.52;93.59;95833.69;5026212;28;20048;-59
2020/12/31 03:37:06;;;;;;;17.83;9.38;;;;;;;-1.47;93.81;95828.97;5015985;28;20048;-60
2020/12/31 03:39:32;;;;;;;15.82;8.18;;;;;;;-1.57;93.70;95821.19;5021762;28;20044;-60
2020/12/31 03:41:57;;;;;;;16.73;8.88;;;;;;;-1.61;93.86;95823.69;5038054;28;20041;-61
2020/12/31 03:44:23;;;;;;;15.70;8.63;;;;;;;-1.67;94.14;95824.16;5028432;28;20474;-61
2020/12/31 03:46:48;;;;;;;15.98;8.60;;;;;;;-1.77;94.24;95817.94;5031886;28;20065;-60
2020/12/31 03:49:14;;;;;;;16.58;8.40;;;;;;;-1.82;94.27;95819.97;5016943;28;20049;-60
2020/12/31 03:51:40;;;;;;;12.90;7.40;;;;;;;-1.87;94.26;95817.41;5020416;28;20041;-59
2020/12/31 03:54:05;;;;;;;13.40;7.93;;;;;;;-1.90;94.16;95813.47;5015820;28;20048;-59
2020/12/31 03:56:30;;;;;;;14.63;7.93;;;;;;;-1.86;94.88;95805.59;5039575;28;20040;-56
2020/12/31 03:58:56;;;;;;;18.98;8.40;;;;;;;-1.89;94.85;95798.94;5039433;28;20087;-58
2020/12/31 04:01:28;;;;;;;16.85;7.97;;;;;;;-1.96;94.78;95801.28;5048110;28;20045;-59
2020/12/31 04:03:53;;;;;;;13.63;7.50;;;;;;;-2.04;94.53;95802.00;5064201;28;20513;-59
2020/12/31 04:06:19;;;;;;;12.35;7.80;;;;;;;-2.05;94.53;95800.41;5035524;28;20036;-56
2020/12/31 04:08:44;;;;;;;15.05;7.50;;;;;;;-2.16;94.38;95797.19;5035837;28;20409;-56
2020/12/31 04:11:10;;;;;;;13.98;7.40;;;;;;;-2.25;94.08;95789.13;5026674;28;20133;-58
2020/12/31 04:13:36;;;;;;;15.80;7.35;;;;;;;-2.33;93.78;95793.31;5021545;28;20486;-58
2020/12/31 04:16:01;;;;;;;13.10;7.35;;;;;;;-2.27;94.12;95793.97;5021847;28;20482;-61
2020/12/31 04:18:27;;;;;;;11.90;6.88;;;;;;;-2.21;94.23;95790.09;5016151;28;20057;-60
2020/12/31 04:20:52;;;;;;;13.13;7.55;;;;;;;-2.16;94.01;95778.41;5038438;28;20055;-60
2020/12/31 04:23:18;;;;;;;11.05;6.75;;;;;;;-2.18;93.87;95773.38;5033661;28;20076;-55
2020/12/31 04:25:43;;;;;;;14.32;7.55;;;;;;;-2.28;93.94;95778.22;5042143;28;20103;-60
2020/12/31 04:28:08;;;;;;;12.30;6.88;;;;;;;-2.30;93.64;95773.16;5039238;28;20033;-59
2020/12/31 04:30:34;;;;;;;16.23;7.88;;;;;;;-2.34;94.00;95770.28;5042094;28;20050;-61
2020/12/31 04:32:59;;;;;;;13.52;7.65;;;;;;;-2.37;94.21;95765.53;5039901;28;20136;-61
2020/12/31 04:35:25;;;;;;;15.60;7.93;;;;;;;-2.36;94.15;95764.44;5035630;28;20070;-59
2020/12/31 04:37:50;;;;;;;15.98;8.52;;;;;;;-2.39;94.32;95758.91;5038182;28;20858;-59
2020/12/31 04:40:16;;;;;;;14.52;8.27;;;;;;;-2.39;94.55;95758.91;5034473;28;20045;-59
2020/12/31 04:42:42;;;;;;;15.52;8.13;;;;;;;-2.39;94.44;95759.69;5040799;28;20055;-57
2020/12/31 04:45:07;;;;;;;15.30;8.88;;;;;;;-2.41;94.47;95756.53;5035329;28;20087;-59
2020/12/31 04:47:41;;;;;;;18.98;9.43;;;;;;;-2.40;94.66;95751.94;5023391;28;20129;-59
2020/12/31 04:50:07;;;;;;;16.55;8.98;;;;;;;-2.40;94.82;95754.63;5027230;28;20053;-60
2020/12/31 04:52:33;;;;;;;21.20;10.80;;;;;;;-2.35;95.35;95747.22;5035505;28;20048;-58
2020/12/31 04:55:00;;;;;;;20.10;10.85;;;;;;;-2.20;96.45;95750.63;5023051;28;20064;-55
2020/12/31 04:57:25;;;;;;;25.30;12.30;;;;;;;-2.27;96.52;95752.97;5035982;28;20126;-58
2020/12/31 04:59:51;;;;;;;25.48;11.82;;;;;;;-2.36;96.27;95759.09;5041388;28;20090;-57
2020/12/31 05:02:16;;;;;;;18.60;11.23;;;;;;;-2.34;96.37;95759.56;5035092;28;20523;-59
2020/12/31 05:04:42;;;;;;;22.70;11.35;;;;;;;-2.38;96.50;95760.47;5040665;28;20128;-60
2020/12/31 05:07:08;;;;;;;30.48;12.68;;;;;;;-2.41;96.52;95763.75;5038076;28;20052;-61
2020/12/31 05:09:34;;;;;;;21.30;11.48;;;;;;;-2.44;96.19;95762.50;5040549;28;20048;-61
2020/12/31 05:11:59;;;;;;;24.23;12.40;;;;;;;-2.52;96.43;95755.16;5039141;28;20480;-57
2020/12/31 05:14:32;;;;;;;22.55;11.05;;;;;;;-2.57;96.22;95756.09;5036349;28;20677;-60
2020/12/31 05:17:23;;;;;;;19.08;10.35;;;;;;;-2.56;96.20;95752.31;5039674;28;20049;-60
2020/12/31 05:19:49;;;;;;;21.90;11.45;;;;;;;-2.42;96.63;95759.50;5042398;28;20049;-59
2020/12/31 05:22:19;;;;;;;24.08;11.73;;;;;;;-2.43;96.26;95750.69;5034548;28;20048;-61
2020/12/31 05:24:49;;;;;;;22.30;11.20;;;;;;;-2.53;96.20;95754.38;5039863;28;20563;-60
2020/12/31 05:27:22;;;;;;;20.00;10.63;;;;;;;-2.57;96.13;95763.34;5032196;28;20040;-56
2020/12/31 05:29:58;;;;;;;18.80;10.68;;;;;;;-2.59;96.12;95765.53;5040393;28;20056;-60
2020/12/31 05:32:26;;;;;;;20.88;10.23;;;;;;;-2.62;96.22;95761.56;5033464;28;20653;-61
2020/12/31 05:34:53;;;;;;;23.30;10.88;;;;;;;-2.54;96.31;95760.03;5031650;28;20777;-60
2020/12/31 05:37:19;;;;;;;18.27;10.65;;;;;;;-2.42;96.11;95762.19;4999005;28;20657;-59
2020/12/31 05:40:05;;;;;;;23.25;12.23;;;;;;;-2.48;95.36;95755.34;5020501;28;20045;-60
2020/12/31 05:42:31;;;;;;;20.80;11.50;;;;;;;-2.48;95.39;95761.53;5038666;28;20068;-61
2020/12/31 05:45:06;;;;;;;20.67;11.65;;;;;;;-2.51;95.29;95756.75;5013633;28;20506;-59
2020/12/31 05:47:33;;;;;;;21.10;10.85;;;;;;;-2.54;95.47;95765.41;5041081;28;20148;-60
2020/12/31 05:49:58;;;;;;;21.67;11.82;;;;;;;-2.59;95.31;95757.47;5026862;28;20045;-58
2020/12/31 05:52:37;;;;;;;20.95;10.65;;;;;;;-2.61;95.35;95755.13;5027413;28;20044;-59
2020/12/31 05:55:07;;;;;;;22.50;11.00;;;;;;;-2.62;95.29;95752.75;5040408;28;20398;-61
2020/12/31 05:57:44;;;;;;;;;;;;;;;-2.67;95.54;95764.38;5023915;28;20038;-61
2020/12/31 06:00:19;;;;;;;21.83;10.90;;;;;;;-2.71;95.00;95761.50;5041312;28;19919;-56
2020/12/31 06:02:47;;;;;;;14.85;8.63;;;;;;;-2.71;95.44;95755.38;5051712;28;20456;-59
2020/12/31 06:05:15;;;;;;;19.50;10.02;;;;;;;-2.74;95.34;95756.78;5017793;28;20053;-59
2020/12/31 06:07:45;;;;;;;18.63;9.07;;;;;;;-2.76;95.24;95756.25;5041363;28;20124;-58
2020/12/31 06:10:17;;;;;;;16.75;9.63;;;;;;;-2.76;95.51;95763.53;5038276;28;20048;-59
2020/12/31 06:12:50;;;;;;;19.23;9.75;;;;;;;-2.78;95.11;95763.03;5026920;28;20045;-60
2020/12/31 06:15:17;;;;;;;18.35;9.38;;;;;;;-2.80;95.25;95757.19;5043004;28;20466;-61
2020/12/31 06:17:47;;;;;;;17.42;8.90;;;;;;;-2.82;95.46;95759.38;5046352;28;20041;-59
2020/12/31 06:20:15;;;;;;;20.42;9.50;;;;;;;-2.81;94.91;95764.44;5034924;28;20040;-59
2020/12/31 06:22:59;;;;;;;18.02;9.93;;;;;;;-2.80;94.56;95763.34;5038517;28;20132;-57
2020/12/31 06:25:36;;;;;;;17.88;9.00;;;;;;;-2.69;94.41;95764.66;5035455;28;20045;-58
2020/12/31 06:28:14;;;;;;;18.00;9.98;;;;;;;-2.58;93.92;95764.44;5040799;28;20033;-60
2020/12/31 06:30:49;;;;;;;19.60;10.30;;;;;;;-2.53;93.14;95765.09;5040831;28;20037;-57
2020/12/31 06:33:25;;;;;;;18.10;10.02;;;;;;;-2.46;93.16;95763.91;5016428;28;20037;-58
2020/12/31 06:35:56;;;;;;;18.23;10.18;;;;;;;-2.40;92.67;95768.81;5040625;28;20383;-58
2020/12/31 06:38:30;;;;;;;17.13;9.23;;;;;;;-2.40;92.67;95762.66;5031250;28;20067;-60
2020/12/31 06:40:56;;;;;;;17.42;9.07;;;;;;;-2.42;92.22;95765.66;5040797;28;20048;-58
2020/12/31 06:43:30;;;;;;;15.75;9.75;;;;;;;-2.49;91.90;95767.97;5041175;28;20770;-60
2020/12/31 06:45:57;;;;;;;17.85;9.38;;;;;;;-2.43;91.85;95774.81;5050566;28;20045;-60
2020/12/31 06:48:25;;;;;;;17.65;8.88;;;;;;;-2.53;92.10;95780.41;5036974;28;20048;-58
2020/12/31 06:50:57;;;;;;;16.35;8.65;;;;;;;-2.62;92.15;95774.97;5040544;28;20053;-60
2020/12/31 06:53:33;;;;;;;17.45;8.90;;;;;;;-2.63;92.33;95775.28;5035448;28;20794;-61
2020/12/31 06:56:12;;;;;;;13.10;8.10;;;;;;;-2.65;92.40;95772.13;5041247;28;20041;-60
2020/12/31 06:58:42;;;;;;;14.18;8.20;;;;;;;-2.59;91.83;95774.38;5037962;28;20095;-60
2020/12/31 07:01:40;;;;;;;15.18;8.52;;;;;;;-2.55;91.53;95766.53;5034601;28;20037;-61
2020/12/31 07:04:05;;;;;;;16.42;8.75;;;;;;;-2.43;91.10;95765.94;5019365;28;20087;-59
2020/12/31 07:06:32;;;;;;;14.75;8.18;;;;;;;-2.36;90.61;95764.44;5040482;28;20482;-58
2020/12/31 07:09:04;;;;;;;14.32;8.18;;;;;;;-2.36;90.29;95763.63;5040601;28;20045;-59
2020/12/31 07:11:33;;;;;;;13.30;8.20;;;;;;;-2.36;90.31;95766.31;5036924;28;20051;-60
2020/12/31 07:14:20;;;;;;;15.90;8.07;;;;;;;-2.40;90.16;95765.34;5040685;28;20048;-60
2020/12/31 07:16:54;;;;;;;14.75;9.55;;;;;;;-2.41;89.83;95766.44;5021630;28;20044;-59
2020/12/31 07:19:45;;;;;;;13.88;7.85;;;;;;;-2.36;89.46;95767.13;5016621;28;20129;-56
2020/12/31 07:22:11;;;;;;;13.70;7.90;;;;;;;-2.38;89.44;95779.25;5032112;28;20041;-62
2020/12/31 07:25:02;;;;;;;13.50;8.18;;;;;;;-2.40;89.37;95771.50;5039602;28;20424;-58
2020/12/31 07:27:31;;;;;;;11.05;7.38;;;;;;;-2.41;89.67;95774.47;5014854;28;20053;-59
2020/12/31 07:30:06;;;;;;;14.52;7.35;;;;;;;-2.35;89.36;95779.41;5040351;28;20045;-59
2020/12/31 07:32:47;;;;;;;13.70;7.55;;;;;;;-2.23;88.51;95767.31;5038871;28;20099;-57
2020/12/31 07:35:24;;;;;;;13.25;6.20;;;;;;;-2.25;88.27;95770.34;5034615;28;20140;-57
2020/12/31 07:37:55;;;;;;;12.98;6.47;;;;;;;-2.22;88.68;95775.06;5021651;28;20134;-59
2020/12/31 07:40:30;;;;;;;12.15;6.25;;;;;;;-2.13;88.01;95773.22;5034009;28;20045;-60
2020/12/31 07:42:56;;;;;;;8.90;5.70;;;;;;;-2.04;87.63;95772.50;5021370;28;20041;-60
2020/12/31 07:45:22;;;;;;;10.15;6.18;;;;;;;-1.87;87.90;95777.97;5034651;28;20502;-59
2020/12/31 07:47:51;;;;;;;27.55;14.60;;;;;;;-1.64;85.97;95773.31;5041774;28;20033;-61
2020/12/31 07:50:17;;;;;;;47.97;29.20;;;;;;;-1.51;85.34;95770.81;5038022;28;20059;-61
2020/12/31 07:52:42;;;;;;;16.80;8.60;;;;;;;-1.32;83.99;95765.19;5043259;28;20394;-61
2020/12/31 07:55:08;;;;;;;12.38;6.05;;;;;;;-1.17;83.20;95772.78;5019014;28;20047;-60
2020/12/31 07:57:37;;;;;;;10.25;7.32;;;;;;;-0.97;82.37;95768.72;5041869;28;20494;-61
2020/12/31 08:00:03;;;;;;;10.03;6.20;;;;;;;-0.50;81.43;95768.09;5041671;28;20044;-60
2020/12/31 08:02:30;;;;;;;11.68;7.68;;;;;;;-0.10;79.12;95765.19;5042026;28;20052;-58
2020/12/31 08:04:55;;;;;;;8.23;6.03;;;;;;;-0.27;79.49;95766.78;5045315;28;20068;-60
2020/12/31 08:07:21;;;;;;;10.65;5.38;;;;;;;-0.24;79.63;95759.97;5044853;28;20157;-60
2020/12/31 08:09:49;;;;;;;10.48;5.63;;;;;;;-0.35;79.22;95754.13;5043624;28;20045;-59
2020/12/31 08:12:16;;;;;;;8.82;5.25;;;;;;;-0.31;79.65;95755.06;5036191;28;20045;-61
2020/12/31 08:14:46;;;;;;;9.68;4.82;;;;;;;-0.18;80.13;95747.94;5043282;28;20037;-60
2020/12/31 08:17:13;;;;;;;8.80;5.20;;;;;;;0.01;79.42;95752.16;5017993;28;20052;-61
2020/12/31 08:19:40;;;;;;;5.82;4.57;;;;;;;0.24;78.81;95744.66;5046018;28;20041;-58
2020/12/31 08:22:35;;;;;;;8.00;4.30;;;;;;;0.44;77.39;95737.75;5036897;28;20064;-59
2020/12/31 08:25:09;;;;;;;6.65;3.95;;;;;;;0.71;76.52;95736.47;5024768;28;20438;-60
2020/12/31 08:27:37;;;;;;;7.80;4.68;;;;;;;1.32;74.59;95730.66;5017733;28;20049;-58
2020/12/31 08:30:10;;;;;;;5.97;3.60;;;;;;;1.26;72.93;95729.25;5038563;28;20535;-60
2020/12/31 08:32:48;;;;;;;7.47;4.45;;;;;;;0.52;74.77;95726.09;5042706;28;20049;-58
2020/12/31 08:35:19;;;;;;;6.00;3.80;;;;;;;0.68;75.18;95735.22;5018326;28;20068;-61
2020/12/31 08:37:47;;;;;;;9.45;4.68;;;;;;;1.05;75.23;95729.28;5042577;28;20048;-57
2020/12/31 08:40:20;;;;;;;7.10;4.07;;;;;;;0.95;73.30;95725.06;5017014;28;20049;-62
2020/12/31 08:42:51;;;;;;;8.32;4.68;;;;;;;1.09;73.79;95727.50;5023973;28;20052;-60
2020/12/31 08:45:24;;;;;;;20.02;9.38;;;;;;;1.18;73.03;95730.91;5027056;28;20045;-60
2020/12/31 08:47:49;;;;;;;15.52;10.25;;;;;;;1.07;72.87;95727.81;5052717;23;20118;-65
2020/12/31 08:50:15;;;;;;;8.63;5.78;;;;;;;0.86;73.02;95732.41;5004466;28;20068;-65
2020/12/31 08:52:40;;;;;;;8.23;4.38;;;;;;;0.84;73.66;95729.25;5024433;28;20042;-65
2020/12/31 08:55:12;;;;;;;6.93;5.32;;;;;;;0.69;74.75;95730.63;5034048;28;20118;-67
2020/12/31 08:57:39;;;;;;;8.25;5.93;;;;;;;1.06;73.79;95737.03;5010744;28;20053;-65
2020/12/31 09:00:06;;;;;;;6.97;5.43;;;;;;;1.41;72.37;95742.16;5002662;28;20457;-65
2020/12/31 09:02:32;;;;;;;5.80;3.70;;;;;;;1.05;72.15;95740.06;5006566;28;20129;-65
2020/12/31 09:05:14;;;;;;;5.60;4.40;;;;;;;1.44;71.49;95744.19;5009196;28;20207;-65
2020/12/31 09:07:40;;;;;;;6.70;3.80;;;;;;;1.43;71.15;95744.53;5010301;28;20037;-63
2020/12/31 09:10:16;;;;;;;7.75;3.55;;;;;;;1.98;70.29;95747.97;5004464;28;20107;-65
2020/12/31 09:12:42;;;;;;;8.05;4.35;;;;;;;1.62;69.83;95747.53;5017518;28;20564;-64
2020/12/31 09:15:16;;;;;;;7.40;3.58;;;;;;;2.49;68.71;95741.16;4989276;28;20054;-64
2020/12/31 09:17:43;;;;;;;8.35;4.45;;;;;;;1.75;68.89;95731.34;5012670;28;20057;-65
2020/12/31 09:20:17;;;;;;;7.15;4.63;;;;;;;1.51;71.13;95732.84;5007177;28;20140;-64
2020/12/31 09:22:42;;;;;;;5.75;4.20;;;;;;;1.42;71.18;95743.72;5018294;28;20049;-65
2020/12/31 09:25:11;;;;;;;6.63;4.22;;;;;;;0.98;71.62;95734.41;5000009;28;20635;-64
2020/12/31 09:27:38;;;;;;;13.23;4.80;;;;;;;0.78;73.16;95731.38;5008154;28;20153;-64
2020/12/31 09:30:06;;;;;;;6.75;3.40;;;;;;;1.02;71.93;95728.00;5006116;28;20037;-63
2020/12/31 09:32:32;;;;;;;11.52;4.47;;;;;;;1.34;72.48;95734.59;5015668;28;20079;-65
2020/12/31 09:34:57;;;;;;;5.85;3.72;;;;;;;1.65;71.41;95725.25;5016933;28;20041;-65
2020/12/31 09:37:23;;;;;;;6.20;3.13;;;;;;;1.92;68.50;95729.25;5007115;28;20494;-64
2020/12/31 09:39:48;;;;;;;6.43;3.90;;;;;;;1.74;69.42;95725.19;4998564;28;20069;-64
2020/12/31 09:42:14;;;;;;;5.88;3.75;;;;;;;2.24;67.55;95720.66;5013692;28;20497;-67
2020/12/31 09:44:39;;;;;;;6.25;3.78;;;;;;;2.71;65.99;95719.44;5021720;28;20444;-66
2020/12/31 09:47:06;;;;;;;7.68;3.45;;;;;;;2.70;65.89;95717.84;5013070;28;20397;-67
2020/12/31 09:49:31;;;;;;;6.18;3.28;;;;;;;3.92;63.83;95715.88;5013386;28;20048;-66
2020/12/31 09:51:57;;;;;;;5.68;3.50;;;;;;;4.15;59.99;95716.06;5019974;28;20041;-67
2020/12/31 09:54:22;;;;;;;5.07;3.05;;;;;;;3.14;62.42;95718.00;5015981;28;20381;-67
2020/12/31 09:56:47;;;;;;;5.20;3.17;;;;;;;3.02;63.29;95724.22;5016968;28;20038;-67
2020/12/31 09:59:13;;;;;;;4.32;2.83;;;;;;;2.64;63.31;95718.06;5009205;28;20440;-71
2020/12/31 10:01:39;;;;;;;4.93;3.05;;;;;;;2.51;63.71;95707.63;5032046;28;20109;-68
2020/12/31 10:04:05;;;;;;;4.88;3.50;;;;;;;2.65;64.43;95708.84;5013548;28;20398;-67
2020/12/31 10:06:30;;;;;;;5.20;2.85;;;;;;;3.42;61.35;95710.69;4980568;28;20037;-68
2020/12/31 10:08:56;;;;;;;5.90;2.75;;;;;;;3.11;63.54;95705.16;5012259;28;20049;-66
2020/12/31 10:11:21;;;;;;;5.32;2.83;;;;;;;2.56;63.54;95710.88;5011934;28;20052;-65
2020/12/31 10:13:47;;;;;;;7.38;3.53;;;;;;;1.91;65.69;95706.09;5004988;28;20052;-67
2020/12/31 10:16:12;;;;;;;7.03;3.80;;;;;;;1.87;66.28;95702.50;5005701;28;20042;-67
2020/12/31 10:18:38;;;;;;;11.07;4.00;;;;;;;1.90;66.79;95698.34;5006636;28;20119;-66
2020/12/31 10:21:03;;;;;;;6.30;3.22;;;;;;;1.96;67.24;95694.28;5009050;28;20059;-69
2020/12/31 10:23:29;;;;;;;4.78;2.85;;;;;;;1.86;65.44;95692.03;5014592;28;20047;-66
2020/12/31 10:25:55;;;;;;;6.63;3.40;;;;;;;1.90;66.09;95693.72;5006777;28;20068;-66
2020/12/31 10:28:21;;;;;;;8.13;4.00;;;;;;;1.68;67.40;95680.63;5006326;28;20076;-66
2020/12/31 10:30:47;;;;;;;15.77;7.70;;;;;;;1.79;68.35;95679.06;5013897;28;20049;-66
2020/12/31 10:33:13;;;;;;;8.25;4.55;;;;;;;1.98;66.66;95673.16;5010912;28;20114;-67
2020/12/31 10:35:38;;;;;;;24.58;14.77;;;;;;;1.74;67.30;95673.09;5019860;28;20133;-67
2020/12/31 10:38:04;;;;;;;7.93;4.78;;;;;;;1.59;67.67;95667.22;5008409;28;20034;-69
2020/12/31 10:40:30;;;;;;;6.47;4.38;;;;;;;1.46;67.45;95665.59;5009372;28;20045;-67
2020/12/31 10:42:56;;;;;;;6.82;4.30;;;;;;;1.63;67.05;95664.66;5011428;28;20202;-68
2020/12/31 10:45:21;;;;;;;7.47;4.45;;;;;;;1.65;66.82;95660.47;4999275;28;20168;-67
2020/12/31 10:47:47;;;;;;;9.40;4.18;;;;;;;1.67;66.77;95657.44;5012531;28;20136;-68
2020/12/31 10:50:13;;;;;;;8.65;5.18;;;;;;;1.81;67.53;95649.03;5013049;28;20052;-67
2020/12/31 10:52:38;;;;;;;7.80;4.82;;;;;;;2.02;66.74;95646.25;4999784;28;20211;-67
2020/12/31 10:55:15;;;;;;;8.18;5.10;;;;;;;1.89;65.79;95648.13;5004508;28;20561;-72
2020/12/31 10:57:44;;;;;;;6.88;4.57;;;;;;;1.97;65.85;95641.06;5007612;28;20048;-66
2020/12/31 11:00:10;;;;;;;7.35;4.80;;;;;;;2.04;65.50;95644.78;5003427;28;20050;-68
2020/12/31 11:02:35;;;;;;;6.43;3.80;;;;;;;2.53;64.72;95638.56;5015233;28;20049;-66
2020/12/31 11:05:06;;;;;;;8.23;5.20;;;;;;;2.33;64.13;95636.81;5002840;28;20060;-67
2020/12/31 11:07:32;;;;;;;5.88;3.80;;;;;;;2.56;64.23;95642.53;5007761;28;20072;-66
2020/12/31 11:09:57;;;;;;;6.32;3.65;;;;;;;2.89;63.39;95623.38;5011722;28;20049;-66
2020/12/31 11:12:23;;;;;;;5.97;4.00;;;;;;;3.55;61.82;95624.78;5013549;28;20079;-66
2020/12/31 11:14:48;;;;;;;4.85;3.13;;;;;;;3.23;61.47;95621.22;5024234;28;20129;-66
2020/12/31 11:17:14;;;;;;;4.97;3.13;;;;;;;3.38;61.56;95625.88;5013942;28;20079;-66
2020/12/31 11:19:39;;;;;;;4.40;3.08;;;;;;;2.49;63.20;95626.88;5005924;28;20058;-66
2020/12/31 11:22:05;;;;;;;7.38;4.85;;;;;;;2.14;64.64;95616.53;5011110;28;20048;-69
2020/12/31 11:24:31;;;;;;;12.82;9.30;;;;;;;2.01;66.37;95614.97;5022052;28;20154;-64
2020/12/31 11:26:56;;;;;;;5.90;3.20;;;;;;;2.06;65.64;95606.63;5010471;28;20517;-66
2020/12/31 11:29:22;;;;;;;6.68;3.50;;;;;;;2.20;65.86;95603.59;5010851;28;20058;-65
2020/12/31 11:31:47;;;;;;;9.02;3.88;;;;;;;2.53;65.41;95595.31;5017953;28;20048;-67
2020/12/31 11:34:12;;;;;;;5.78;3.17;;;;;;;2.45;65.41;95598.94;4994805;28;20711;-64
2020/12/31 11:36:38;;;;;;;4.60;2.70;;;;;;;2.44;65.88;95594.66;4996151;28;20041;-67